SBCT/CWB METAR and TAF weather

Enter ICAO airport designator
Station Type Date Time Source
SBCT METAR 2019/05/23 19:00 UTC NOAA

SBCT 231900Z 31007KT 5000 -RA BR FEW004 BKN009 OVC080 16/15 Q10 16


Station Type Date Time Source
SBCT Decoded METAR 2019/05/23 19:00 UTC NOAA

Curitiba Aeroporto , Brazil (SBCT) 25-31S 049-10W 908M
May 23, 2019 - 03:00 PM EDT / 2019.05.23 1900 UTC
Wind: from the NW (310 degrees) at 8 MPH (7 KT):0
Visibility: 3 mile(s):0
Sky conditions: overcast
Weather: light rain; mist
Temperature: 60 F (16 C)
Dew Point: 59 F (15 C)
Relative Humidity: 93%
ob: SBCT 231900Z 31007KT 5000 -RA BR FEW004 BKN009 OVC080 16/15 Q10 16
cycle: 19

Station Type Date Time Source
SBCT TAF 2019/05/23 18:33 UTC NOAA

TAF SBCT 231530Z 2318/2418 19006KT 5000 RA BKN006 BKN020 TX18/2318Z TN09/2409Z
BECMG 2322/2324 10005KT 3000 RA BKN003 BKN012
BECMG 2414/2416 14005KT 9999 SCT008 BKN015
RMK PCO

Example: see airport list